sensor_id;sensor_type;location;lat;lon;timestamp;temperature;humidity
6462;DHT22;3264;42.862;25.098;2023-04-23T00:01:33;4.80;99.90
6462;DHT22;3264;42.862;25.098;2023-04-23T00:04:07;4.80;99.90
6462;DHT22;3264;42.862;25.098;2023-04-23T00:06:37;4.90;99.90
6462;DHT22;3264;42.862;25.098;2023-04-23T00:09:08;4.90;99.90
6462;DHT22;3264;42.862;25.098;2023-04-23T00:11:38;4.80;99.90
6462;DHT22;3264;42.862;25.098;2023-04-23T00:14:08;4.80;99.90
6462;DHT22;3264;42.862;25.098;2023-04-23T00:16:38;4.80;99.90
6462;DHT22;3264;42.862;25.098;2023-04-23T00:19:07;4.70;99.90
6462;DHT22;3264;42.862;25.098;2023-04-23T00:21:36;4.70;99.90
6462;DHT22;3264;42.862;25.098;2023-04-23T00:24:06;4.70;99.90
6462;DHT22;3264;42.862;25.098;2023-04-23T00:26:36;4.70;99.90
6462;DHT22;3264;42.862;25.098;2023-04-23T00:29:07;4.60;99.90
6462;DHT22;3264;42.862;25.098;2023-04-23T00:31:36;4.60;99.90
6462;DHT22;3264;42.862;25.098;2023-04-23T00:34:06;4.50;99.90
6462;DHT22;3264;42.862;25.098;2023-04-23T00:36:36;4.50;99.90
6462;DHT22;3264;42.862;25.098;2023-04-23T00:39:12;4.60;99.90
6462;DHT22;3264;42.862;25.098;2023-04-23T00:41:41;4.50;99.90
6462;DHT22;3264;42.862;25.098;2023-04-23T00:44:11;4.50;99.90
6462;DHT22;3264;42.862;25.098;2023-04-23T00:46:41;4.40;99.90
6462;DHT22;3264;42.862;25.098;2023-04-23T00:49:09;4.30;99.90
6462;DHT22;3264;42.862;25.098;2023-04-23T00:51:38;4.30;99.90
6462;DHT22;3264;42.862;25.098;2023-04-23T00:54:06;4.40;99.90
6462;DHT22;3264;42.862;25.098;2023-04-23T00:56:35;4.30;99.90
6462;DHT22;3264;42.862;25.098;2023-04-23T00:59:03;4.40;99.90
6462;DHT22;3264;42.862;25.098;2023-04-23T01:01:33;4.50;99.90
6462;DHT22;3264;42.862;25.098;2023-04-23T01:04:01;4.50;99.90
6462;DHT22;3264;42.862;25.098;2023-04-23T01:06:30;4.40;99.90
6462;DHT22;3264;42.862;25.098;2023-04-23T01:08:58;4.50;99.90
6462;DHT22;3264;42.862;25.098;2023-04-23T01:11:28;4.40;99.90
6462;DHT22;3264;42.862;25.098;2023-04-23T01:13:56;4.40;99.90
6462;DHT22;3264;42.862;25.098;2023-04-23T01:16:25;4.40;99.90
6462;DHT22;3264;42.862;25.098;2023-04-23T01:18:56;4.50;99.90
6462;DHT22;3264;42.862;25.098;2023-04-23T01:21:25;4.50;99.90
6462;DHT22;3264;42.862;25.098;2023-04-23T01:23:56;4.40;99.90
6462;DHT22;3264;42.862;25.098;2023-04-23T01:26:25;4.40;99.90
6462;DHT22;3264;42.862;25.098;2023-04-23T01:28:55;4.30;99.90
6462;DHT22;3264;42.862;25.098;2023-04-23T01:31:25;4.40;99.90
6462;DHT22;3264;42.862;25.098;2023-04-23T01:33:55;4.30;99.90
6462;DHT22;3264;42.862;25.098;2023-04-23T01:36:24;4.30;99.90
6462;DHT22;3264;42.862;25.098;2023-04-23T01:38:55;4.30;99.90
6462;DHT22;3264;42.862;25.098;2023-04-23T01:41:24;4.30;99.90
6462;DHT22;3264;42.862;25.098;2023-04-23T01:43:54;4.30;99.90
6462;DHT22;3264;42.862;25.098;2023-04-23T01:46:24;4.40;99.90
6462;DHT22;3264;42.862;25.098;2023-04-23T01:48:53;4.40;99.90
6462;DHT22;3264;42.862;25.098;2023-04-23T01:51:23;4.40;99.90
6462;DHT22;3264;42.862;25.098;2023-04-23T01:53:52;4.30;99.90
6462;DHT22;3264;42.862;25.098;2023-04-23T01:56:25;4.30;99.90
6462;DHT22;3264;42.862;25.098;2023-04-23T01:58:54;4.20;99.90
6462;DHT22;3264;42.862;25.098;2023-04-23T02:01:41;4.20;99.90
6462;DHT22;3264;42.862;25.098;2023-04-23T02:04:11;4.20;99.90
6462;DHT22;3264;42.862;25.098;2023-04-23T02:06:42;4.20;99.90
6462;DHT22;3264;42.862;25.098;2023-04-23T02:09:10;4.10;99.90
6462;DHT22;3264;42.862;25.098;2023-04-23T02:11:40;4.10;99.90
6462;DHT22;3264;42.862;25.098;2023-04-23T02:14:09;4.10;99.90
6462;DHT22;3264;42.862;25.098;2023-04-23T02:16:38;4.10;99.90
6462;DHT22;3264;42.862;25.098;2023-04-23T02:19:05;4.10;99.90
6462;DHT22;3264;42.862;25.098;2023-04-23T02:21:35;4.00;99.90
6462;DHT22;3264;42.862;25.098;2023-04-23T02:24:03;4.00;99.90
6462;DHT22;3264;42.862;25.098;2023-04-23T02:26:33;3.90;99.90
6462;DHT22;3264;42.862;25.098;2023-04-23T02:29:03;3.90;99.90
6462;DHT22;3264;42.862;25.098;2023-04-23T02:31:32;3.90;99.90
6462;DHT22;3264;42.862;25.098;2023-04-23T02:34:01;3.90;99.90
6462;DHT22;3264;42.862;25.098;2023-04-23T02:36:31;3.90;99.90
6462;DHT22;3264;42.862;25.098;2023-04-23T02:39:07;3.80;99.90
6462;DHT22;3264;42.862;25.098;2023-04-23T02:41:35;3.80;99.90
6462;DHT22;3264;42.862;25.098;2023-04-23T02:44:07;3.90;99.90
6462;DHT22;3264;42.862;25.098;2023-04-23T02:46:36;3.90;99.90
6462;DHT22;3264;42.862;25.098;2023-04-23T02:49:04;3.90;99.90
6462;DHT22;3264;42.862;25.098;2023-04-23T02:51:34;3.90;99.90
6462;DHT22;3264;42.862;25.098;2023-04-23T02:54:10;3.80;99.90
6462;DHT22;3264;42.862;25.098;2023-04-23T02:56:39;3.80;99.90
6462;DHT22;3264;42.862;25.098;2023-04-23T02:59:10;3.80;99.90
6462;DHT22;3264;42.862;25.098;2023-04-23T03:01:39;3.80;99.90
6462;DHT22;3264;42.862;25.098;2023-04-23T03:04:08;3.80;99.90
6462;DHT22;3264;42.862;25.098;2023-04-23T03:06:39;3.80;99.90
6462;DHT22;3264;42.862;25.098;2023-04-23T03:09:08;3.70;99.90
6462;DHT22;3264;42.862;25.098;2023-04-23T03:11:38;3.70;99.90
6462;DHT22;3264;42.862;25.098;2023-04-23T03:14:06;3.70;99.90
6462;DHT22;3264;42.862;25.098;2023-04-23T03:16:35;3.60;99.90
6462;DHT22;3264;42.862;25.098;2023-04-23T03:19:03;3.70;99.90
6462;DHT22;3264;42.862;25.098;2023-04-23T03:21:32;3.70;99.90
6462;DHT22;3264;42.862;25.098;2023-04-23T03:24:11;3.70;99.90
6462;DHT22;3264;42.862;25.098;2023-04-23T03:26:39;3.80;99.90
6462;DHT22;3264;42.862;25.098;2023-04-23T03:29:07;3.80;99.90
6462;DHT22;3264;42.862;25.098;2023-04-23T03:31:37;3.70;99.90
6462;DHT22;3264;42.862;25.098;2023-04-23T03:34:07;3.70;99.90
6462;DHT22;3264;42.862;25.098;2023-04-23T03:36:37;3.70;99.90
6462;DHT22;3264;42.862;25.098;2023-04-23T03:39:05;3.80;99.90
6462;DHT22;3264;42.862;25.098;2023-04-23T03:41:35;3.80;99.90
6462;DHT22;3264;42.862;25.098;2023-04-23T03:44:04;3.80;99.90
6462;DHT22;3264;42.862;25.098;2023-04-23T03:46:32;3.90;99.90
6462;DHT22;3264;42.862;25.098;2023-04-23T03:49:03;3.90;99.90
6462;DHT22;3264;42.862;25.098;2023-04-23T03:51:31;3.90;99.90
6462;DHT22;3264;42.862;25.098;2023-04-23T03:54:00;4.00;99.90
6462;DHT22;3264;42.862;25.098;2023-04-23T03:56:30;4.00;99.90
6462;DHT22;3264;42.862;25.098;2023-04-23T03:58:59;4.10;99.90
6462;DHT22;3264;42.862;25.098;2023-04-23T04:01:27;4.20;99.90
6462;DHT22;3264;42.862;25.098;2023-04-23T04:03:56;4.30;99.90
6462;DHT22;3264;42.862;25.098;2023-04-23T04:06:26;4.40;99.90
6462;DHT22;3264;42.862;25.098;2023-04-23T04:08:54;4.40;99.90
6462;DHT22;3264;42.862;25.098;2023-04-23T04:11:23;4.40;99.90
6462;DHT22;3264;42.862;25.098;2023-04-23T04:13:52;4.40;99.90
6462;DHT22;3264;42.862;25.098;2023-04-23T04:16:21;4.40;99.90
6462;DHT22;3264;42.862;25.098;2023-04-23T04:18:49;4.50;99.90
6462;DHT22;3264;42.862;25.098;2023-04-23T04:21:18;4.50;99.90
6462;DHT22;3264;42.862;25.098;2023-04-23T04:23:48;4.60;99.90
6462;DHT22;3264;42.862;25.098;2023-04-23T04:26:17;4.60;99.90
6462;DHT22;3264;42.862;25.098;2023-04-23T04:28:47;4.70;99.90
6462;DHT22;3264;42.862;25.098;2023-04-23T04:31:17;4.80;99.90
6462;DHT22;3264;42.862;25.098;2023-04-23T04:33:46;5.00;99.90
6462;DHT22;3264;42.862;25.098;2023-04-23T04:36:14;5.10;99.90
6462;DHT22;3264;42.862;25.098;2023-04-23T04:38:43;5.10;99.90
6462;DHT22;3264;42.862;25.098;2023-04-23T04:41:13;5.20;99.90
6462;DHT22;3264;42.862;25.098;2023-04-23T04:43:42;5.40;99.90
6462;DHT22;3264;42.862;25.098;2023-04-23T04:46:11;5.20;99.90
6462;DHT22;3264;42.862;25.098;2023-04-23T04:48:40;5.40;99.90
6462;DHT22;3264;42.862;25.098;2023-04-23T04:51:08;5.50;99.90
6462;DHT22;3264;42.862;25.098;2023-04-23T04:53:37;5.60;99.90
6462;DHT22;3264;42.862;25.098;2023-04-23T04:56:07;5.80;99.90
6462;DHT22;3264;42.862;25.098;2023-04-23T04:58:37;6.00;99.90
6462;DHT22;3264;42.862;25.098;2023-04-23T05:01:05;6.20;99.90
6462;DHT22;3264;42.862;25.098;2023-04-23T05:03:36;6.40;99.90
6462;DHT22;3264;42.862;25.098;2023-04-23T05:06:05;6.60;99.90
6462;DHT22;3264;42.862;25.098;2023-04-23T05:15:55;6.90;99.90
6462;DHT22;3264;42.862;25.098;2023-04-23T05:18:24;7.40;99.90
6462;DHT22;3264;42.862;25.098;2023-04-23T05:20:53;7.60;99.90
6462;DHT22;3264;42.862;25.098;2023-04-23T05:23:21;7.80;99.90
6462;DHT22;3264;42.862;25.098;2023-04-23T05:25:51;8.00;99.90
6462;DHT22;3264;42.862;25.098;2023-04-23T05:28:21;8.00;99.90
6462;DHT22;3264;42.862;25.098;2023-04-23T05:30:50;8.00;99.90
6462;DHT22;3264;42.862;25.098;2023-04-23T05:33:21;8.10;99.90
6462;DHT22;3264;42.862;25.098;2023-04-23T05:35:48;8.50;99.90
6462;DHT22;3264;42.862;25.098;2023-04-23T05:38:16;8.80;99.90
6462;DHT22;3264;42.862;25.098;2023-04-23T05:40:45;8.80;99.90
6462;DHT22;3264;42.862;25.098;2023-04-23T05:43:14;9.10;99.90
6462;DHT22;3264;42.862;25.098;2023-04-23T05:45:42;9.40;99.90
6462;DHT22;3264;42.862;25.098;2023-04-23T05:48:10;9.70;99.90
6462;DHT22;3264;42.862;25.098;2023-04-23T05:50:40;9.60;99.90
6462;DHT22;3264;42.862;25.098;2023-04-23T05:53:08;10.10;99.90
6462;DHT22;3264;42.862;25.098;2023-04-23T05:55:37;10.00;99.90
6462;DHT22;3264;42.862;25.098;2023-04-23T05:58:06;10.10;99.90
6462;DHT22;3264;42.862;25.098;2023-04-23T06:00:35;10.50;99.90
6462;DHT22;3264;42.862;25.098;2023-04-23T06:03:04;10.90;99.90
6462;DHT22;3264;42.862;25.098;2023-04-23T06:05:33;10.50;99.90
6462;DHT22;3264;42.862;25.098;2023-04-23T06:08:04;10.40;99.90
6462;DHT22;3264;42.862;25.098;2023-04-23T06:10:32;10.60;99.90
6462;DHT22;3264;42.862;25.098;2023-04-23T06:13:00;11.00;99.90
6462;DHT22;3264;42.862;25.098;2023-04-23T06:15:29;11.80;99.90
6462;DHT22;3264;42.862;25.098;2023-04-23T06:17:59;12.40;99.90
6462;DHT22;3264;42.862;25.098;2023-04-23T06:20:28;12.20;99.90
6462;DHT22;3264;42.862;25.098;2023-04-23T06:22:56;12.50;99.90
6462;DHT22;3264;42.862;25.098;2023-04-23T06:25:26;12.60;99.90
6462;DHT22;3264;42.862;25.098;2023-04-23T06:27:56;12.90;99.90
6462;DHT22;3264;42.862;25.098;2023-04-23T06:30:25;13.00;98.60
6462;DHT22;3264;42.862;25.098;2023-04-23T06:32:54;13.20;97.40
6462;DHT22;3264;42.862;25.098;2023-04-23T06:35:22;13.70;97.50
6462;DHT22;3264;42.862;25.098;2023-04-23T06:37:51;13.70;96.00
6462;DHT22;3264;42.862;25.098;2023-04-23T06:40:19;14.00;94.70
6462;DHT22;3264;42.862;25.098;2023-04-23T06:42:49;14.50;95.70
6462;DHT22;3264;42.862;25.098;2023-04-23T06:45:19;14.90;97.10
6462;DHT22;3264;42.862;25.098;2023-04-23T06:47:48;14.70;96.00
6462;DHT22;3264;42.862;25.098;2023-04-23T06:50:16;14.70;94.50
6462;DHT22;3264;42.862;25.098;2023-04-23T06:52:44;14.20;96.90
6462;DHT22;3264;42.862;25.098;2023-04-23T06:55:12;14.80;96.40
6462;DHT22;3264;42.862;25.098;2023-04-23T06:57:42;14.70;94.30
6462;DHT22;3264;42.862;25.098;2023-04-23T07:00:12;14.80;93.30
6462;DHT22;3264;42.862;25.098;2023-04-23T07:02:41;15.10;94.80
6462;DHT22;3264;42.862;25.098;2023-04-23T07:05:16;15.70;92.40
6462;DHT22;3264;42.862;25.098;2023-04-23T07:07:44;15.90;92.50
6462;DHT22;3264;42.862;25.098;2023-04-23T07:10:11;16.30;91.00
6462;DHT22;3264;42.862;25.098;2023-04-23T07:12:39;16.30;90.10
6462;DHT22;3264;42.862;25.098;2023-04-23T07:15:11;16.00;84.20
6462;DHT22;3264;42.862;25.098;2023-04-23T07:17:39;16.20;89.00
6462;DHT22;3264;42.862;25.098;2023-04-23T07:20:07;16.40;87.40
6462;DHT22;3264;42.862;25.098;2023-04-23T07:22:37;16.80;91.00
6462;DHT22;3264;42.862;25.098;2023-04-23T07:25:05;16.90;87.70
6462;DHT22;3264;42.862;25.098;2023-04-23T07:27:34;16.60;91.40
6462;DHT22;3264;42.862;25.098;2023-04-23T07:30:02;16.50;91.50
6462;DHT22;3264;42.862;25.098;2023-04-23T07:32:33;16.80;90.30
6462;DHT22;3264;42.862;25.098;2023-04-23T07:35:01;17.80;90.50
6462;DHT22;3264;42.862;25.098;2023-04-23T07:37:31;18.40;87.20
6462;DHT22;3264;42.862;25.098;2023-04-23T07:39:58;18.30;78.00
6462;DHT22;3264;42.862;25.098;2023-04-23T07:42:27;18.40;79.60
6462;DHT22;3264;42.862;25.098;2023-04-23T07:44:56;18.70;80.30
6462;DHT22;3264;42.862;25.098;2023-04-23T07:47:26;18.40;76.20
6462;DHT22;3264;42.862;25.098;2023-04-23T07:49:56;18.60;78.10
6462;DHT22;3264;42.862;25.098;2023-04-23T07:52:24;18.90;71.70
6462;DHT22;3264;42.862;25.098;2023-04-23T07:54:51;18.60;71.70
6462;DHT22;3264;42.862;25.098;2023-04-23T07:57:19;18.40;72.50
6462;DHT22;3264;42.862;25.098;2023-04-23T07:59:49;18.70;71.30
6462;DHT22;3264;42.862;25.098;2023-04-23T08:02:17;18.60;68.80
6462;DHT22;3264;42.862;25.098;2023-04-23T08:04:48;18.50;68.00
6462;DHT22;3264;42.862;25.098;2023-04-23T08:07:19;19.10;64.80
6462;DHT22;3264;42.862;25.098;2023-04-23T08:09:47;19.50;71.20
6462;DHT22;3264;42.862;25.098;2023-04-23T08:12:14;19.60;62.20
6462;DHT22;3264;42.862;25.098;2023-04-23T08:14:43;19.60;63.10
6462;DHT22;3264;42.862;25.098;2023-04-23T08:17:12;19.00;56.70
6462;DHT22;3264;42.862;25.098;2023-04-23T08:19:40;18.80;52.10
6462;DHT22;3264;42.862;25.098;2023-04-23T08:22:09;19.30;57.20
6462;DHT22;3264;42.862;25.098;2023-04-23T08:24:39;19.80;56.90
6462;DHT22;3264;42.862;25.098;2023-04-23T08:27:09;19.80;55.30
6462;DHT22;3264;42.862;25.098;2023-04-23T08:29:37;19.50;54.70
6462;DHT22;3264;42.862;25.098;2023-04-23T08:32:06;19.90;54.80
6462;DHT22;3264;42.862;25.098;2023-04-23T08:34:36;19.60;53.90
6462;DHT22;3264;42.862;25.098;2023-04-23T08:37:05;20.50;57.70
6462;DHT22;3264;42.862;25.098;2023-04-23T08:39:33;20.50;55.20
6462;DHT22;3264;42.862;25.098;2023-04-23T08:42:09;20.10;53.60
6462;DHT22;3264;42.862;25.098;2023-04-23T08:44:42;20.30;55.50
6462;DHT22;3264;42.862;25.098;2023-04-23T08:47:14;20.20;54.60
6462;DHT22;3264;42.862;25.098;2023-04-23T08:49:45;20.40;54.20
6462;DHT22;3264;42.862;25.098;2023-04-23T08:52:21;20.60;54.70
6462;DHT22;3264;42.862;25.098;2023-04-23T08:54:53;20.20;56.00
6462;DHT22;3264;42.862;25.098;2023-04-23T08:57:27;19.50;52.60
6462;DHT22;3264;42.862;25.098;2023-04-23T08:59:55;19.80;55.10
6462;DHT22;3264;42.862;25.098;2023-04-23T09:02:23;19.80;53.90
6462;DHT22;3264;42.862;25.098;2023-04-23T09:04:51;18.70;51.60
6462;DHT22;3264;42.862;25.098;2023-04-23T09:07:23;19.10;53.90
6462;DHT22;3264;42.862;25.098;2023-04-23T09:09:52;20.30;55.50
6462;DHT22;3264;42.862;25.098;2023-04-23T09:12:21;20.70;55.30
6462;DHT22;3264;42.862;25.098;2023-04-23T09:14:51;20.70;55.30
6462;DHT22;3264;42.862;25.098;2023-04-23T09:17:20;20.90;57.30
6462;DHT22;3264;42.862;25.098;2023-04-23T09:19:49;21.30;54.60
6462;DHT22;3264;42.862;25.098;2023-04-23T09:22:43;19.50;52.40
6462;DHT22;3264;42.862;25.098;2023-04-23T09:25:14;20.20;57.00
6462;DHT22;3264;42.862;25.098;2023-04-23T09:27:44;18.90;53.80
6462;DHT22;3264;42.862;25.098;2023-04-23T09:30:17;18.40;54.00
6462;DHT22;3264;42.862;25.098;2023-04-23T09:32:47;19.20;55.50
6462;DHT22;3264;42.862;25.098;2023-04-23T09:35:17;19.80;54.00
6462;DHT22;3264;42.862;25.098;2023-04-23T09:37:47;19.60;54.20
6462;DHT22;3264;42.862;25.098;2023-04-23T09:40:19;18.60;53.40
6462;DHT22;3264;42.862;25.098;2023-04-23T09:42:48;19.10;56.70
6462;DHT22;3264;42.862;25.098;2023-04-23T09:45:19;19.20;54.50
6462;DHT22;3264;42.862;25.098;2023-04-23T09:47:50;19.80;55.20
6462;DHT22;3264;42.862;25.098;2023-04-23T09:50:19;19.30;52.80
6462;DHT22;3264;42.862;25.098;2023-04-23T09:53:00;19.00;53.30
6462;DHT22;3264;42.862;25.098;2023-04-23T09:55:32;19.30;54.30
6462;DHT22;3264;42.862;25.098;2023-04-23T09:58:10;19.00;53.70
6462;DHT22;3264;42.862;25.098;2023-04-23T10:00:42;20.00;52.90
6462;DHT22;3264;42.862;25.098;2023-04-23T10:03:12;21.20;54.30
6462;DHT22;3264;42.862;25.098;2023-04-23T10:17:26;20.70;50.10
6462;DHT22;3264;42.862;25.098;2023-04-23T10:19:57;20.40;50.80
6462;DHT22;3264;42.862;25.098;2023-04-23T10:22:28;20.10;51.10
6462;DHT22;3264;42.862;25.098;2023-04-23T10:24:57;19.90;48.90
6462;DHT22;3264;42.862;25.098;2023-04-23T10:27:28;19.60;51.60
6462;DHT22;3264;42.862;25.098;2023-04-23T10:29:57;19.60;51.20
6462;DHT22;3264;42.862;25.098;2023-04-23T10:32:27;19.70;49.80
6462;DHT22;3264;42.862;25.098;2023-04-23T10:34:56;19.10;51.20
6462;DHT22;3264;42.862;25.098;2023-04-23T10:37:27;18.30;52.30
6462;DHT22;3264;42.862;25.098;2023-04-23T10:40:06;18.30;52.80
6462;DHT22;3264;42.862;25.098;2023-04-23T10:42:37;19.30;57.50
6462;DHT22;3264;42.862;25.098;2023-04-23T10:45:13;19.60;54.50
6462;DHT22;3264;42.862;25.098;2023-04-23T10:47:43;19.70;50.80
6462;DHT22;3264;42.862;25.098;2023-04-23T10:50:19;19.60;53.00
6462;DHT22;3264;42.862;25.098;2023-04-23T10:52:47;19.10;51.20
6462;DHT22;3264;42.862;25.098;2023-04-23T10:55:24;19.10;50.00
6462;DHT22;3264;42.862;25.098;2023-04-23T10:57:58;19.20;53.20
6462;DHT22;3264;42.862;25.098;2023-04-23T11:00:29;19.30;54.50
6462;DHT22;3264;42.862;25.098;2023-04-23T11:03:31;18.90;50.40
6462;DHT22;3264;42.862;25.098;2023-04-23T11:06:06;18.60;52.50
6462;DHT22;3264;42.862;25.098;2023-04-23T11:08:36;18.60;54.50
6462;DHT22;3264;42.862;25.098;2023-04-23T11:14:55;18.40;56.60
6462;DHT22;3264;42.862;25.098;2023-04-23T11:18:03;18.30;57.60
6462;DHT22;3264;42.862;25.098;2023-04-23T11:20:39;18.30;56.90
6462;DHT22;3264;42.862;25.098;2023-04-23T11:23:07;18.00;57.30
6462;DHT22;3264;42.862;25.098;2023-04-23T11:25:57;17.80;58.50
6462;DHT22;3264;42.862;25.098;2023-04-23T11:28:29;17.80;61.00
6462;DHT22;3264;42.862;25.098;2023-04-23T11:31:05;17.80;66.00
6462;DHT22;3264;42.862;25.098;2023-04-23T11:33:38;17.60;69.80
6462;DHT22;3264;42.862;25.098;2023-04-23T11:36:19;17.30;77.70
6462;DHT22;3264;42.862;25.098;2023-04-23T11:39:02;16.90;94.90
6462;DHT22;3264;42.862;25.098;2023-04-23T11:41:37;16.70;99.90
6462;DHT22;3264;42.862;25.098;2023-04-23T11:44:14;16.50;99.90
6462;DHT22;3264;42.862;25.098;2023-04-23T11:46:49;16.40;99.90
6462;DHT22;3264;42.862;25.098;2023-04-23T11:49:18;16.20;99.90
6462;DHT22;3264;42.862;25.098;2023-04-23T11:52:13;16.20;99.90
6462;DHT22;3264;42.862;25.098;2023-04-23T11:54:41;16.20;99.90
6462;DHT22;3264;42.862;25.098;2023-04-23T11:57:09;16.10;99.90
6462;DHT22;3264;42.862;25.098;2023-04-23T11:59:37;16.00;99.90
6462;DHT22;3264;42.862;25.098;2023-04-23T12:02:06;15.70;99.90
6462;DHT22;3264;42.862;25.098;2023-04-23T12:04:34;15.40;99.90
6462;DHT22;3264;42.862;25.098;2023-04-23T12:07:04;15.00;99.90
6462;DHT22;3264;42.862;25.098;2023-04-23T12:09:34;15.70;99.90
6462;DHT22;3264;42.862;25.098;2023-04-23T12:12:05;15.50;99.90
6462;DHT22;3264;42.862;25.098;2023-04-23T12:14:34;16.10;99.90
6462;DHT22;3264;42.862;25.098;2023-04-23T12:17:10;16.50;99.90
6462;DHT22;3264;42.862;25.098;2023-04-23T12:22:53;16.80;99.90
6462;DHT22;3264;42.862;25.098;2023-04-23T12:25:30;16.20;99.90
6462;DHT22;3264;42.862;25.098;2023-04-23T12:28:15;16.30;99.90
6462;DHT22;3264;42.862;25.098;2023-04-23T12:31:03;16.40;99.90
6462;DHT22;3264;42.862;25.098;2023-04-23T12:33:41;16.30;99.90
6462;DHT22;3264;42.862;25.098;2023-04-23T12:42:56;15.90;99.90
6462;DHT22;3264;42.862;25.098;2023-04-23T12:45:36;15.80;99.90
6462;DHT22;3264;42.862;25.098;2023-04-23T12:48:05;16.40;99.90
6462;DHT22;3264;42.862;25.098;2023-04-23T12:50:38;16.50;99.90
6462;DHT22;3264;42.862;25.098;2023-04-23T12:53:11;16.60;99.90
6462;DHT22;3264;42.862;25.098;2023-04-23T12:55:52;16.60;99.90
6462;DHT22;3264;42.862;25.098;2023-04-23T12:58:34;16.80;99.90
6462;DHT22;3264;42.862;25.098;2023-04-23T13:01:19;17.50;99.90
6462;DHT22;3264;42.862;25.098;2023-04-23T13:03:47;18.20;97.70
6462;DHT22;3264;42.862;25.098;2023-04-23T13:06:16;18.90;98.80
6462;DHT22;3264;42.862;25.098;2023-04-23T13:08:44;18.90;98.20
6462;DHT22;3264;42.862;25.098;2023-04-23T13:11:12;18.80;90.20
6462;DHT22;3264;42.862;25.098;2023-04-23T13:13:42;18.60;91.70
6462;DHT22;3264;42.862;25.098;2023-04-23T13:16:10;19.60;93.90
6462;DHT22;3264;42.862;25.098;2023-04-23T13:18:50;19.40;87.00
6462;DHT22;3264;42.862;25.098;2023-04-23T13:21:22;19.90;92.30
6462;DHT22;3264;42.862;25.098;2023-04-23T13:24:12;19.80;80.50
6462;DHT22;3264;42.862;25.098;2023-04-23T13:26:40;19.50;73.50
6462;DHT22;3264;42.862;25.098;2023-04-23T13:29:11;20.10;77.30
6462;DHT22;3264;42.862;25.098;2023-04-23T13:31:56;19.40;70.80
6462;DHT22;3264;42.862;25.098;2023-04-23T13:34:35;19.00;72.90
6462;DHT22;3264;42.862;25.098;2023-04-23T13:37:04;19.10;77.40
6462;DHT22;3264;42.862;25.098;2023-04-23T13:39:36;18.90;69.70
6462;DHT22;3264;42.862;25.098;2023-04-23T13:42:17;19.20;68.50
6462;DHT22;3264;42.862;25.098;2023-04-23T13:44:47;19.20;61.50
6462;DHT22;3264;42.862;25.098;2023-04-23T13:47:15;19.70;62.90
6462;DHT22;3264;42.862;25.098;2023-04-23T13:49:43;19.20;58.70
6462;DHT22;3264;42.862;25.098;2023-04-23T13:52:11;18.80;60.00
6462;DHT22;3264;42.862;25.098;2023-04-23T13:54:40;18.60;67.40
6462;DHT22;3264;42.862;25.098;2023-04-23T13:57:08;18.60;69.30
6462;DHT22;3264;42.862;25.098;2023-04-23T13:59:36;18.40;60.60
6462;DHT22;3264;42.862;25.098;2023-04-23T14:02:06;18.30;62.30
6462;DHT22;3264;42.862;25.098;2023-04-23T14:04:50;18.20;64.10
6462;DHT22;3264;42.862;25.098;2023-04-23T14:07:38;18.00;62.60
6462;DHT22;3264;42.862;25.098;2023-04-23T14:10:29;18.30;70.00
6462;DHT22;3264;42.862;25.098;2023-04-23T14:13:01;18.00;69.20
6462;DHT22;3264;42.862;25.098;2023-04-23T14:15:31;17.90;66.70
6462;DHT22;3264;42.862;25.098;2023-04-23T14:18:01;17.90;68.10
6462;DHT22;3264;42.862;25.098;2023-04-23T14:20:29;18.40;68.90
6462;DHT22;3264;42.862;25.098;2023-04-23T14:23:01;19.00;76.00
6462;DHT22;3264;42.862;25.098;2023-04-23T14:25:35;18.50;61.00
6462;DHT22;3264;42.862;25.098;2023-04-23T14:28:26;18.70;69.80
6462;DHT22;3264;42.862;25.098;2023-04-23T14:30:56;19.10;62.20
6462;DHT22;3264;42.862;25.098;2023-04-23T14:33:26;18.80;57.50
6462;DHT22;3264;42.862;25.098;2023-04-23T14:35:55;19.20;62.10
6462;DHT22;3264;42.862;25.098;2023-04-23T14:38:23;19.30;59.40
6462;DHT22;3264;42.862;25.098;2023-04-23T14:40:53;19.30;61.40
6462;DHT22;3264;42.862;25.098;2023-04-23T14:43:21;19.40;61.50
6462;DHT22;3264;42.862;25.098;2023-04-23T14:45:49;18.80;60.70
6462;DHT22;3264;42.862;25.098;2023-04-23T14:48:17;18.60;61.70
6462;DHT22;3264;42.862;25.098;2023-04-23T14:50:48;18.40;64.60
6462;DHT22;3264;42.862;25.098;2023-04-23T14:53:17;17.70;59.80
6462;DHT22;3264;42.862;25.098;2023-04-23T14:55:46;17.50;59.00
6462;DHT22;3264;42.862;25.098;2023-04-23T14:58:15;17.50;61.50
6462;DHT22;3264;42.862;25.098;2023-04-23T15:00:45;17.50;67.30
6462;DHT22;3264;42.862;25.098;2023-04-23T15:03:15;17.60;66.50
6462;DHT22;3264;42.862;25.098;2023-04-23T15:05:43;17.80;62.80
6462;DHT22;3264;42.862;25.098;2023-04-23T15:08:13;17.90;65.30
6462;DHT22;3264;42.862;25.098;2023-04-23T15:10:42;17.50;59.50
6462;DHT22;3264;42.862;25.098;2023-04-23T15:13:33;17.90;62.60
6462;DHT22;3264;42.862;25.098;2023-04-23T15:16:06;18.10;73.10
6462;DHT22;3264;42.862;25.098;2023-04-23T15:18:34;17.90;63.30
6462;DHT22;3264;42.862;25.098;2023-04-23T15:21:03;18.10;64.80
6462;DHT22;3264;42.862;25.098;2023-04-23T15:23:34;18.40;75.00
6462;DHT22;3264;42.862;25.098;2023-04-23T15:26:06;18.60;76.50
6462;DHT22;3264;42.862;25.098;2023-04-23T15:28:34;18.60;66.10
6462;DHT22;3264;42.862;25.098;2023-04-23T15:31:03;18.10;65.10
6462;DHT22;3264;42.862;25.098;2023-04-23T15:33:42;17.70;81.00
6462;DHT22;3264;42.862;25.098;2023-04-23T15:36:11;17.20;86.00
6462;DHT22;3264;42.862;25.098;2023-04-23T15:38:41;16.90;90.90
6462;DHT22;3264;42.862;25.098;2023-04-23T15:41:11;16.90;90.50
6462;DHT22;3264;42.862;25.098;2023-04-23T15:43:41;17.00;86.30
6462;DHT22;3264;42.862;25.098;2023-04-23T15:46:09;17.20;78.50
6462;DHT22;3264;42.862;25.098;2023-04-23T15:48:37;16.90;88.40
6462;DHT22;3264;42.862;25.098;2023-04-23T15:51:07;16.40;90.20
6462;DHT22;3264;42.862;25.098;2023-04-23T15:53:36;15.90;86.90
6462;DHT22;3264;42.862;25.098;2023-04-23T15:56:06;15.60;91.40
6462;DHT22;3264;42.862;25.098;2023-04-23T15:58:34;15.50;93.30
6462;DHT22;3264;42.862;25.098;2023-04-23T16:01:02;15.70;94.00
6462;DHT22;3264;42.862;25.098;2023-04-23T16:03:32;15.70;94.30
6462;DHT22;3264;42.862;25.098;2023-04-23T16:06:01;15.40;92.50
6462;DHT22;3264;42.862;25.098;2023-04-23T16:08:30;15.40;92.10
6462;DHT22;3264;42.862;25.098;2023-04-23T16:10:59;15.10;93.30
6462;DHT22;3264;42.862;25.098;2023-04-23T16:13:30;15.00;95.40
6462;DHT22;3264;42.862;25.098;2023-04-23T16:15:59;15.10;93.00
6462;DHT22;3264;42.862;25.098;2023-04-23T16:18:27;14.90;95.50
6462;DHT22;3264;42.862;25.098;2023-04-23T16:20:55;14.80;97.10
6462;DHT22;3264;42.862;25.098;2023-04-23T16:23:24;14.70;96.00
6462;DHT22;3264;42.862;25.098;2023-04-23T16:25:52;14.40;96.90
6462;DHT22;3264;42.862;25.098;2023-04-23T16:28:21;14.10;97.20
6462;DHT22;3264;42.862;25.098;2023-04-23T16:30:52;14.00;98.60
6462;DHT22;3264;42.862;25.098;2023-04-23T16:33:21;13.90;99.90
6462;DHT22;3264;42.862;25.098;2023-04-23T16:35:51;13.90;99.60
6462;DHT22;3264;42.862;25.098;2023-04-23T16:38:19;14.00;98.60
6462;DHT22;3264;42.862;25.098;2023-04-23T16:40:47;13.60;99.90
6462;DHT22;3264;42.862;25.098;2023-04-23T16:43:15;13.50;99.90
6462;DHT22;3264;42.862;25.098;2023-04-23T16:45:43;13.70;98.50
6462;DHT22;3264;42.862;25.098;2023-04-23T16:48:13;13.70;98.80